createdAt,value
2023-05-14T00:00:14.406Z,89.53
2023-05-14T00:01:15.967Z,89.60
2023-05-14T00:02:17.494Z,88.85
2023-05-14T00:03:19.110Z,88.40
2023-05-14T00:04:20.724Z,89.36
2023-05-14T00:05:22.598Z,89.09
2023-05-14T00:06:24.090Z,89.20
2023-05-14T00:07:30.659Z,89.77
2023-05-14T00:08:32.376Z,90.09
2023-05-14T00:09:35.234Z,90.38
2023-05-14T00:10:36.722Z,89.73
2023-05-14T00:11:38.143Z,90.78
2023-05-14T00:12:39.581Z,89.79
2023-05-14T00:13:41.055Z,91.61
2023-05-14T00:14:42.489Z,91.56
2023-05-14T00:15:44.452Z,91.98
2023-05-14T00:16:45.793Z,92.09
2023-05-14T00:17:47.244Z,92.21
2023-05-14T00:18:51.849Z,91.04
2023-05-14T00:19:53.299Z,91.27
2023-05-14T00:20:54.938Z,92.11
2023-05-14T00:21:56.418Z,92.70
2023-05-14T00:22:57.826Z,92.51
2023-05-14T00:23:59.398Z,92.44
2023-05-14T00:25:00.870Z,91.77
2023-05-14T00:26:02.388Z,91.88
2023-05-14T00:27:04.085Z,92.23
2023-05-14T00:28:05.499Z,91.35
2023-05-14T00:29:07.089Z,91.82
2023-05-14T00:30:08.798Z,90.20
2023-05-14T00:31:10.209Z,91.82
2023-05-14T00:32:11.641Z,91.43
2023-05-14T00:33:13.132Z,90.90
2023-05-14T00:34:14.523Z,92.23
2023-05-14T00:35:16.184Z,91.54
2023-05-14T00:36:17.652Z,91.98
2023-05-14T00:37:19.062Z,92.29
2023-05-14T00:38:20.566Z,92.52
2023-05-14T00:39:21.946Z,91.58
2023-05-14T00:40:27.651Z,91.73
2023-05-14T00:41:29.050Z,90.13
2023-05-14T00:42:30.650Z,90.98
2023-05-14T00:43:33.200Z,91.32
2023-05-14T00:44:35.436Z,91.56
2023-05-14T00:45:37.016Z,91.38
2023-05-14T00:46:38.631Z,91.43
2023-05-14T00:47:40.617Z,90.70
2023-05-14T00:48:42.168Z,89.02
2023-05-14T00:49:43.880Z,89.68
2023-05-14T00:50:45.705Z,90.56
2023-05-14T00:51:47.251Z,89.42
2023-05-14T00:52:49.425Z,88.50
2023-05-14T00:53:51.007Z,91.14
2023-05-14T00:54:52.561Z,91.73
2023-05-14T00:55:54.191Z,92.23
2023-05-14T00:56:56.170Z,91.27
2023-05-14T00:57:58.023Z,90.34
2023-05-14T00:58:59.704Z,90.18
2023-05-14T01:00:01.222Z,89.66
2023-05-14T01:01:03.146Z,90.54
2023-05-14T01:02:04.696Z,90.76
2023-05-14T01:03:07.643Z,89.88
2023-05-14T01:04:11.633Z,91.73
2023-05-14T01:05:13.122Z,90.85
2023-05-14T01:06:40.812Z,91.72
2023-05-14T01:07:47.970Z,89.76
2023-05-14T01:09:20.188Z,92.07
2023-05-14T01:10:45.314Z,91.97
2023-05-14T01:12:00.897Z,91.49
2023-05-14T01:13:06.551Z,91.89
2023-05-14T01:14:34.147Z,92.49
2023-05-14T01:15:38.085Z,91.52
2023-05-14T01:16:40.501Z,93.20
2023-05-14T01:17:48.724Z,93.31
2023-05-14T01:18:52.565Z,92.75
2023-05-14T01:19:55.535Z,93.56
2023-05-14T01:20:57.007Z,93.82
2023-05-14T01:21:58.392Z,93.47
2023-05-14T01:22:59.782Z,93.40
2023-05-14T01:24:01.216Z,93.31
2023-05-14T01:25:02.776Z,93.21
2023-05-14T01:26:04.410Z,93.57
2023-05-14T01:27:34.812Z,94.77
2023-05-14T01:28:37.513Z,93.34
2023-05-14T01:29:43.325Z,93.60
2023-05-14T01:31:19.577Z,94.06
2023-05-14T01:32:24.492Z,93.73
2023-05-14T01:33:29.196Z,95.59
2023-05-14T01:34:31.292Z,95.75
2023-05-14T01:35:36.121Z,95.13
2023-05-14T01:36:38.938Z,95.88
2023-05-14T01:37:41.701Z,95.79
2023-05-14T01:38:45.701Z,95.29
2023-05-14T01:39:48.410Z,95.40
2023-05-14T01:40:50.810Z,95.38
2023-05-14T01:41:53.257Z,94.22
2023-05-14T01:42:55.304Z,95.78
2023-05-14T01:43:57.371Z,95.49
2023-05-14T01:44:59.502Z,96.10
2023-05-14T01:46:01.002Z,97.13
2023-05-14T01:47:02.562Z,96.83
2023-05-14T01:48:07.023Z,96.81
2023-05-14T01:49:08.488Z,97.00
2023-05-14T01:50:10.547Z,97.16
2023-05-14T01:51:14.524Z,96.83
2023-05-14T01:52:16.009Z,96.97
2023-05-14T01:53:17.467Z,96.11
2023-05-14T01:54:18.878Z,96.26
2023-05-14T01:55:24.461Z,96.42
2023-05-14T01:56:26.080Z,96.23
2023-05-14T01:57:27.516Z,96.73
2023-05-14T01:58:28.980Z,97.29
2023-05-14T01:59:30.487Z,95.98
2023-05-14T02:00:32.060Z,96.43
2023-05-14T02:01:33.913Z,96.91
2023-05-14T02:02:35.541Z,96.04
2023-05-14T02:03:37.116Z,95.90
2023-05-14T02:04:38.608Z,95.92
2023-05-14T02:05:40.069Z,94.84
2023-05-14T02:06:41.587Z,96.02
2023-05-14T02:07:42.987Z,93.26
2023-05-14T02:08:44.391Z,95.60
2023-05-14T02:09:45.877Z,95.12
2023-05-14T02:10:47.296Z,94.23
2023-05-14T02:11:48.678Z,94.79
2023-05-14T02:12:50.153Z,94.78
2023-05-14T02:13:51.660Z,94.07
2023-05-14T02:14:53.069Z,93.99
2023-05-14T02:15:54.556Z,94.13
2023-05-14T02:16:56.272Z,94.13
2023-05-14T02:17:57.739Z,94.67
2023-05-14T02:18:59.197Z,94.35
2023-05-14T02:20:00.723Z,93.40
2023-05-14T02:21:02.492Z,93.78
2023-05-14T02:22:03.977Z,92.65
2023-05-14T02:23:05.572Z,93.51
2023-05-14T02:24:07.113Z,94.14
2023-05-14T02:25:09.240Z,94.05
2023-05-14T02:26:11.133Z,93.45
2023-05-14T02:27:13.290Z,93.93
2023-05-14T02:28:14.696Z,91.85
2023-05-14T02:29:16.167Z,93.56
2023-05-14T02:30:17.745Z,94.26
2023-05-14T02:31:19.476Z,94.08
2023-05-14T02:32:21.080Z,93.35
2023-05-14T02:33:22.633Z,93.03
2023-05-14T02:34:24.931Z,92.67
2023-05-14T02:35:26.340Z,93.41
2023-05-14T02:36:27.816Z,93.85
2023-05-14T02:37:29.240Z,93.72
2023-05-14T02:38:30.612Z,93.22
2023-05-14T02:39:32.044Z,92.86
2023-05-14T02:40:33.425Z,93.72
2023-05-14T02:41:34.895Z,93.32
2023-05-14T02:42:36.333Z,93.69
2023-05-14T02:43:37.709Z,93.04
2023-05-14T02:44:39.166Z,94.11
2023-05-14T02:45:40.555Z,91.70
2023-05-14T02:46:42.791Z,93.39
2023-05-14T02:47:44.322Z,91.77
2023-05-14T02:48:45.916Z,93.90
2023-05-14T02:49:47.310Z,93.17
2023-05-14T02:50:51.042Z,92.46
2023-05-14T02:51:54.257Z,92.78
2023-05-14T02:52:55.686Z,92.21
2023-05-14T02:53:57.090Z,92.92
2023-05-14T02:54:58.482Z,92.60
2023-05-14T02:55:59.933Z,92.03
2023-05-14T02:57:01.437Z,92.02
2023-05-14T02:58:02.924Z,92.33
2023-05-14T02:59:04.408Z,91.12
2023-05-14T03:00:06.596Z,92.39
2023-05-14T03:01:08.774Z,91.68
2023-05-14T03:02:10.847Z,91.43
2023-05-14T03:03:12.959Z,91.97
2023-05-14T03:04:14.760Z,91.81
2023-05-14T03:05:16.173Z,90.61
2023-05-14T03:06:17.588Z,88.58
2023-05-14T03:07:18.995Z,90.50
2023-05-14T03:08:20.548Z,90.22
2023-05-14T03:09:21.976Z,90.29
2023-05-14T03:10:23.592Z,90.76
2023-05-14T03:11:25.429Z,90.89
2023-05-14T03:12:27.017Z,90.01
2023-05-14T03:13:28.501Z,90.23
2023-05-14T03:14:29.919Z,90.30
2023-05-14T03:15:31.348Z,90.05
2023-05-14T03:16:32.828Z,91.53
2023-05-14T03:17:34.484Z,90.31
2023-05-14T03:18:36.625Z,88.57
2023-05-14T03:19:38.154Z,89.51
2023-05-14T03:20:39.683Z,90.08
2023-05-14T03:21:41.172Z,88.40
2023-05-14T03:22:42.755Z,89.06
2023-05-14T03:23:44.301Z,89.35
2023-05-14T03:24:45.782Z,89.59
2023-05-14T03:25:47.184Z,89.36
2023-05-14T03:26:48.567Z,89.80
2023-05-14T03:27:49.977Z,90.14
2023-05-14T03:28:51.381Z,89.26
2023-05-14T03:29:52.795Z,90.16
2023-05-14T03:30:54.494Z,90.42
2023-05-14T03:31:56.089Z,89.83
2023-05-14T03:32:57.701Z,89.40
2023-05-14T03:33:59.221Z,89.85
2023-05-14T03:35:00.664Z,89.11
2023-05-14T03:36:02.093Z,89.16
2023-05-14T03:37:03.663Z,89.69
2023-05-14T03:38:05.188Z,88.88
2023-05-14T03:39:09.889Z,88.70
2023-05-14T03:40:11.662Z,89.38
2023-05-14T03:41:13.072Z,88.38
2023-05-14T03:42:14.482Z,89.12
2023-05-14T03:43:16.381Z,87.99
2023-05-14T03:44:17.871Z,88.41
2023-05-14T03:45:19.515Z,87.58
2023-05-14T03:46:20.988Z,89.42
2023-05-14T03:47:22.444Z,88.92
2023-05-14T03:48:23.934Z,88.03
2023-05-14T03:49:25.408Z,87.94
2023-05-14T03:50:26.867Z,87.88
2023-05-14T03:51:28.257Z,88.74
2023-05-14T03:52:29.687Z,87.75
2023-05-14T03:53:31.142Z,87.44
2023-05-14T03:54:32.593Z,87.91
2023-05-14T03:55:34.020Z,88.56
2023-05-14T03:56:35.619Z,87.91
2023-05-14T03:57:37.068Z,87.76
2023-05-14T03:58:38.548Z,88.46
2023-05-14T03:59:39.972Z,87.87
2023-05-14T04:00:42.634Z,89.04
2023-05-14T04:01:44.594Z,88.79
2023-05-14T04:02:46.037Z,88.60
2023-05-14T04:03:47.789Z,89.78
2023-05-14T04:04:49.353Z,89.50
2023-05-14T04:05:51.507Z,89.06
2023-05-14T04:06:52.978Z,89.91
2023-05-14T04:07:54.407Z,90.93
2023-05-14T04:08:55.835Z,89.70
2023-05-14T04:09:57.274Z,90.58
2023-05-14T04:10:58.683Z,89.60
2023-05-14T04:12:00.192Z,89.98
2023-05-14T04:13:01.634Z,90.77
2023-05-14T04:14:03.134Z,89.85
2023-05-14T04:15:05.422Z,90.72
2023-05-14T04:16:07.014Z,90.55
2023-05-14T04:17:08.436Z,90.22
2023-05-14T04:18:09.901Z,90.73
2023-05-14T04:19:11.584Z,91.07
2023-05-14T04:20:13.133Z,92.02
2023-05-14T04:21:14.824Z,91.34
2023-05-14T04:22:16.194Z,91.59
2023-05-14T04:23:17.598Z,90.80
2023-05-14T04:24:19.030Z,90.96
2023-05-14T04:25:20.722Z,91.27
2023-05-14T04:26:22.156Z,90.97
2023-05-14T04:27:23.611Z,91.24
2023-05-14T04:28:25.119Z,91.34
2023-05-14T04:29:27.698Z,91.00
2023-05-14T04:30:29.690Z,91.64
2023-05-14T04:31:31.595Z,91.56
2023-05-14T04:32:33.076Z,91.69
2023-05-14T04:33:34.517Z,91.10
2023-05-14T04:34:36.247Z,89.75
2023-05-14T04:35:37.768Z,89.02
2023-05-14T04:36:40.061Z,88.98
2023-05-14T04:37:41.593Z,88.37
2023-05-14T04:38:43.011Z,88.43
2023-05-14T04:39:44.565Z,88.71
2023-05-14T04:40:48.552Z,86.67
2023-05-14T04:41:49.950Z,87.33
2023-05-14T04:42:51.423Z,86.17
2023-05-14T04:43:56.391Z,84.22
2023-05-14T04:44:58.655Z,84.48
2023-05-14T04:46:00.620Z,84.55
2023-05-14T04:47:02.657Z,83.84
2023-05-14T04:48:04.704Z,83.26
2023-05-14T04:49:06.167Z,82.05
2023-05-14T04:50:09.711Z,79.53
2023-05-14T04:51:11.177Z,78.20
2023-05-14T04:52:12.697Z,78.90
2023-05-14T04:53:14.129Z,76.31
2023-05-14T04:54:15.559Z,76.65
2023-05-14T04:55:17.088Z,73.14
2023-05-14T04:56:18.503Z,72.53
2023-05-14T04:57:19.994Z,69.85
2023-05-14T04:58:23.166Z,66.65
2023-05-14T04:59:24.576Z,70.41
2023-05-14T05:00:26.334Z,70.86
2023-05-14T05:01:28.032Z,71.18
2023-05-14T05:02:29.464Z,71.95
2023-05-14T05:03:31.188Z,70.09
2023-05-14T05:04:32.602Z,70.98
2023-05-14T05:05:35.096Z,68.38
2023-05-14T05:06:36.550Z,71.72
2023-05-14T05:07:37.982Z,72.58
2023-05-14T05:08:39.792Z,73.02
2023-05-14T05:09:41.211Z,72.44
2023-05-14T05:10:42.651Z,69.93
2023-05-14T05:11:44.325Z,69.02
2023-05-14T05:12:45.818Z,73.38
2023-05-14T05:13:47.225Z,68.89
2023-05-14T05:14:48.634Z,69.73
2023-05-14T05:15:50.089Z,71.83
2023-05-14T05:16:51.512Z,73.46
2023-05-14T05:17:53.025Z,73.50
2023-05-14T05:18:54.573Z,74.99
2023-05-14T05:19:56.078Z,75.49
2023-05-14T05:20:57.747Z,76.54
2023-05-14T05:21:59.242Z,76.46
2023-05-14T05:23:00.769Z,76.40
2023-05-14T05:24:02.356Z,74.67
2023-05-14T05:25:06.314Z,73.58
2023-05-14T05:26:07.773Z,72.20
2023-05-14T05:27:09.165Z,72.60
2023-05-14T05:28:10.615Z,72.01
2023-05-14T05:29:12.019Z,72.24
2023-05-14T05:30:13.500Z,71.51
2023-05-14T05:31:15.464Z,71.95
2023-05-14T05:32:17.998Z,70.58
2023-05-14T05:33:19.761Z,70.36
2023-05-14T05:34:21.351Z,70.76
2023-05-14T05:35:22.981Z,69.05
2023-05-14T05:36:24.430Z,69.25
2023-05-14T05:37:25.871Z,70.43
2023-05-14T05:38:27.279Z,72.17
2023-05-14T05:39:34.553Z,71.49
2023-05-14T05:40:36.094Z,69.55
2023-05-14T05:41:37.492Z,69.14
2023-05-14T05:42:38.865Z,68.09
2023-05-14T05:43:40.333Z,67.63
2023-05-14T05:44:41.747Z,67.63
2023-05-14T05:45:45.997Z,68.58
2023-05-14T05:46:47.493Z,68.67
2023-05-14T05:47:48.964Z,66.52
2023-05-14T05:48:50.491Z,66.66
2023-05-14T05:49:51.867Z,66.70
2023-05-14T05:50:53.304Z,66.84
2023-05-14T05:51:54.832Z,64.81
2023-05-14T05:52:56.297Z,66.23
2023-05-14T05:53:57.704Z,66.98
2023-05-14T05:54:59.106Z,68.73
2023-05-14T05:56:00.528Z,66.16
2023-05-14T05:57:01.953Z,67.46
2023-05-14T05:58:03.350Z,65.20
2023-05-14T05:59:04.776Z,66.46
2023-05-14T06:00:13.128Z,65.08
2023-05-14T06:01:14.654Z,64.65
2023-05-14T06:02:16.097Z,65.54
2023-05-14T06:03:17.644Z,65.28
2023-05-14T06:04:19.083Z,65.48
2023-05-14T06:05:23.809Z,64.76
2023-05-14T06:06:25.388Z,64.81
2023-05-14T06:07:26.813Z,65.93
2023-05-14T06:08:28.227Z,65.97
2023-05-14T06:09:29.664Z,64.70
2023-05-14T06:10:31.220Z,64.56
2023-05-14T06:11:32.840Z,64.46
2023-05-14T06:12:34.299Z,64.68
2023-05-14T06:13:35.995Z,65.30
2023-05-14T06:14:37.393Z,66.94
2023-05-14T06:15:41.741Z,65.91
2023-05-14T06:16:43.167Z,68.44
2023-05-14T06:17:44.639Z,65.76
2023-05-14T06:18:46.475Z,65.06
2023-05-14T06:19:47.893Z,66.76
2023-05-14T06:20:49.309Z,66.20
2023-05-14T06:21:50.741Z,64.64
2023-05-14T06:22:52.220Z,65.35
2023-05-14T06:23:53.622Z,64.98
2023-05-14T06:24:55.304Z,64.49
2023-05-14T06:25:56.777Z,64.75
2023-05-14T06:26:58.191Z,64.42
2023-05-14T06:27:59.618Z,64.41
2023-05-14T06:29:01.020Z,65.80
2023-05-14T06:30:02.540Z,64.64
2023-05-14T06:31:04.052Z,63.24
2023-05-14T06:32:05.883Z,63.72
2023-05-14T06:33:07.310Z,63.64
2023-05-14T06:34:09.151Z,62.27
2023-05-14T06:35:10.730Z,62.51
2023-05-14T06:36:12.176Z,62.28
2023-05-14T06:37:13.610Z,63.92
2023-05-14T06:38:15.023Z,62.37
2023-05-14T06:39:16.419Z,63.78
2023-05-14T06:40:18.629Z,62.03
2023-05-14T06:41:20.020Z,62.77
2023-05-14T06:42:21.442Z,62.67
2023-05-14T06:43:22.914Z,62.88
2023-05-14T06:44:24.371Z,62.35
2023-05-14T06:45:25.786Z,61.18
2023-05-14T06:46:27.222Z,61.56
2023-05-14T06:47:28.698Z,62.10
2023-05-14T06:48:30.992Z,62.31
2023-05-14T06:49:32.412Z,61.05
2023-05-14T06:50:33.779Z,60.42
2023-05-14T06:51:35.217Z,62.06
2023-05-14T06:52:37.030Z,59.59
2023-05-14T06:53:39.092Z,58.04
2023-05-14T06:54:40.589Z,57.84
2023-05-14T06:55:42.005Z,60.09
2023-05-14T06:56:43.446Z,59.76
2023-05-14T06:57:45.051Z,58.46
2023-05-14T06:58:46.466Z,56.24
2023-05-14T06:59:47.865Z,56.36
2023-05-14T07:00:49.284Z,54.62
2023-05-14T07:01:50.826Z,55.12
2023-05-14T07:02:52.357Z,55.35
2023-05-14T07:03:53.915Z,56.11
2023-05-14T07:04:55.921Z,55.19
2023-05-14T07:05:57.364Z,54.49
2023-05-14T07:06:58.879Z,55.63
2023-05-14T07:08:00.336Z,57.20
2023-05-14T07:09:02.203Z,56.92
2023-05-14T07:10:03.816Z,55.93
2023-05-14T07:11:05.270Z,54.88
2023-05-14T07:12:07.406Z,54.33
2023-05-14T07:13:08.837Z,55.22
2023-05-14T07:14:10.562Z,53.42
2023-05-14T07:15:12.225Z,54.12
2023-05-14T07:16:13.688Z,55.07
2023-05-14T07:17:15.158Z,54.07
2023-05-14T07:18:16.817Z,54.42
2023-05-14T07:19:18.301Z,56.43
2023-05-14T07:20:24.075Z,53.78
2023-05-14T07:21:26.122Z,53.60
2023-05-14T07:22:27.537Z,52.98
2023-05-14T07:23:28.942Z,52.54
2023-05-14T07:24:30.428Z,53.06
2023-05-14T07:25:32.650Z,54.82
2023-05-14T07:26:34.148Z,54.50
2023-05-14T07:27:35.571Z,55.25
2023-05-14T07:28:36.984Z,51.96
2023-05-14T07:29:38.407Z,55.30
2023-05-14T07:30:39.948Z,52.89
2023-05-14T07:31:41.407Z,51.08
2023-05-14T07:32:42.927Z,51.46
2023-05-14T07:33:44.797Z,51.55
2023-05-14T07:34:46.324Z,51.74
2023-05-14T07:35:47.852Z,50.81
2023-05-14T07:36:49.285Z,52.02
2023-05-14T07:37:51.577Z,53.57
2023-05-14T07:38:53.012Z,50.74
2023-05-14T07:39:54.484Z,51.15
2023-05-14T07:40:56.085Z,48.74
2023-05-14T07:41:57.562Z,49.72
2023-05-14T07:42:58.999Z,49.46
2023-05-14T07:44:00.471Z,48.50
2023-05-14T07:45:01.969Z,49.47
2023-05-14T07:46:03.389Z,49.88
2023-05-14T07:47:05.095Z,51.14
2023-05-14T07:48:06.742Z,49.50
2023-05-14T07:49:08.364Z,50.71
2023-05-14T07:50:10.412Z,50.72
2023-05-14T07:51:11.872Z,49.14
2023-05-14T07:52:13.312Z,49.38
2023-05-14T07:53:14.828Z,49.19
2023-05-14T07:54:16.842Z,49.67
2023-05-14T07:55:18.351Z,52.37
2023-05-14T07:56:19.947Z,49.11
2023-05-14T07:57:22.069Z,46.96
2023-05-14T07:58:24.932Z,49.44
2023-05-14T07:59:26.357Z,48.51
2023-05-14T08:00:27.977Z,48.86
2023-05-14T08:01:29.456Z,47.88
2023-05-14T08:02:31.039Z,47.95
2023-05-14T08:03:33.780Z,48.99
2023-05-14T08:04:36.025Z,48.88
2023-05-14T08:05:37.566Z,48.95
2023-05-14T08:06:38.987Z,48.32
2023-05-14T08:07:41.296Z,48.92
2023-05-14T08:08:42.716Z,48.58
2023-05-14T08:09:44.285Z,48.48
2023-05-14T08:10:45.845Z,49.46
2023-05-14T08:11:47.346Z,49.00
2023-05-14T08:12:49.859Z,47.44
2023-05-14T08:13:51.292Z,47.02
2023-05-14T08:14:53.199Z,44.73
2023-05-14T08:15:55.478Z,44.34
2023-05-14T08:16:56.991Z,43.53
2023-05-14T08:18:03.259Z,44.18
2023-05-14T08:19:04.758Z,44.67
2023-05-14T08:20:07.391Z,44.34
2023-05-14T08:21:08.832Z,45.92
2023-05-14T08:22:10.283Z,47.23
2023-05-14T08:23:11.821Z,47.62
2023-05-14T08:24:13.303Z,44.49
2023-05-14T08:25:14.780Z,45.39
2023-05-14T08:26:16.231Z,43.86
2023-05-14T08:27:17.609Z,44.63
2023-05-14T08:28:19.052Z,43.98
2023-05-14T08:29:20.638Z,43.44
2023-05-14T08:30:22.951Z,44.11
2023-05-14T08:31:24.861Z,43.82
2023-05-14T08:32:26.430Z,44.65
2023-05-14T08:33:27.867Z,44.45
2023-05-14T08:34:29.794Z,48.34
2023-05-14T08:35:31.208Z,45.41
2023-05-14T08:36:32.868Z,45.01
2023-05-14T08:37:34.287Z,42.22
2023-05-14T08:38:35.702Z,46.86
2023-05-14T08:39:37.096Z,43.32
2023-05-14T08:40:38.557Z,42.44
2023-05-14T08:41:40.861Z,43.08
2023-05-14T08:42:44.952Z,42.98
2023-05-14T08:44:12.682Z,42.70
2023-05-14T08:45:20.909Z,41.20
2023-05-14T08:46:24.828Z,42.33
2023-05-14T08:47:26.582Z,42.51
2023-05-14T08:48:32.048Z,41.79
2023-05-14T08:49:46.264Z,41.99
2023-05-14T08:50:47.749Z,40.73
2023-05-14T08:51:49.707Z,41.15
2023-05-14T08:52:52.028Z,40.18
2023-05-14T08:53:53.473Z,44.18
2023-05-14T08:54:55.835Z,43.18
2023-05-14T08:55:58.079Z,39.78
2023-05-14T08:56:59.637Z,43.70
2023-05-14T08:58:01.440Z,42.26
2023-05-14T08:59:02.819Z,41.81
2023-05-14T09:00:08.537Z,41.94
2023-05-14T09:01:09.994Z,41.90
2023-05-14T09:02:14.969Z,39.24
2023-05-14T09:03:18.324Z,38.79
2023-05-14T09:04:22.218Z,39.61
2023-05-14T09:05:24.135Z,38.75
2023-05-14T09:06:26.018Z,37.89
2023-05-14T09:07:27.987Z,40.30
2023-05-14T09:08:29.656Z,40.76
2023-05-14T09:09:31.161Z,38.69
2023-05-14T09:10:32.662Z,40.04
2023-05-14T09:11:34.067Z,41.78
2023-05-14T09:12:35.598Z,39.65
2023-05-14T09:13:39.437Z,39.75
2023-05-14T09:14:41.252Z,39.40
2023-05-14T09:15:42.605Z,39.37
2023-05-14T09:16:49.565Z,42.46
2023-05-14T09:17:51.198Z,44.40
2023-05-14T09:18:52.941Z,44.86
2023-05-14T09:19:54.477Z,44.88
2023-05-14T09:20:56.044Z,42.16
2023-05-14T09:21:59.043Z,39.83
2023-05-14T09:23:01.646Z,40.60
2023-05-14T09:24:03.854Z,40.10
2023-05-14T09:25:08.012Z,40.68
2023-05-14T09:26:09.454Z,40.44
2023-05-14T09:27:20.309Z,41.02
2023-05-14T09:28:22.798Z,41.12
2023-05-14T09:29:26.083Z,39.73
2023-05-14T09:30:27.627Z,40.04
2023-05-14T09:31:33.583Z,39.62
2023-05-14T09:32:40.282Z,39.81
2023-05-14T09:33:41.889Z,40.94
2023-05-14T09:34:43.310Z,40.59
2023-05-14T09:35:44.820Z,39.06
2023-05-14T09:36:46.220Z,41.30
2023-05-14T09:37:50.401Z,40.75
2023-05-14T09:38:51.808Z,41.51
2023-05-14T09:39:53.237Z,41.17
2023-05-14T09:40:54.646Z,41.16
2023-05-14T09:41:56.668Z,42.71
2023-05-14T09:42:58.196Z,43.21
2023-05-14T09:44:02.684Z,43.77
2023-05-14T09:45:05.358Z,41.10
2023-05-14T09:46:06.847Z,40.98
2023-05-14T09:47:08.388Z,39.36
2023-05-14T09:48:10.438Z,39.05
2023-05-14T09:49:12.159Z,42.21
2023-05-14T09:50:13.693Z,38.12
2023-05-14T09:51:17.517Z,38.11
2023-05-14T09:52:19.803Z,37.69
2023-05-14T09:53:21.378Z,38.10
2023-05-14T09:54:23.648Z,37.75
2023-05-14T09:55:26.035Z,41.21
2023-05-14T09:56:27.504Z,42.33
2023-05-14T09:57:29.096Z,41.34
2023-05-14T09:58:30.590Z,36.56
2023-05-14T09:59:32.019Z,39.72
2023-05-14T10:00:34.508Z,34.10
2023-05-14T10:01:36.700Z,36.83
2023-05-14T10:02:41.139Z,34.67
2023-05-14T10:03:43.383Z,36.29
2023-05-14T10:04:45.437Z,36.91
2023-05-14T10:05:49.529Z,36.09
2023-05-14T10:06:53.163Z,37.35
2023-05-14T10:07:59.078Z,36.97
2023-05-14T10:09:03.911Z,36.03
2023-05-14T10:10:08.675Z,38.59
2023-05-14T10:11:20.744Z,36.43
2023-05-14T10:12:23.516Z,37.42
2023-05-14T10:13:36.688Z,38.47
2023-05-14T10:14:47.298Z,37.81
2023-05-14T10:16:00.161Z,40.20
2023-05-14T10:17:03.237Z,39.55
2023-05-14T10:18:11.213Z,36.76
2023-05-14T10:19:15.188Z,37.99
2023-05-14T10:20:17.640Z,36.02
2023-05-14T10:21:22.306Z,35.37
2023-05-14T10:22:26.954Z,37.74
2023-05-14T10:23:28.704Z,37.11
2023-05-14T10:24:31.177Z,38.31
2023-05-14T10:25:33.017Z,43.56
2023-05-14T10:26:38.967Z,43.78
2023-05-14T10:27:41.295Z,39.77
2023-05-14T10:28:43.829Z,41.18
2023-05-14T10:29:54.378Z,40.35
2023-05-14T10:30:56.045Z,42.39
2023-05-14T10:31:57.484Z,42.28
2023-05-14T10:33:09.982Z,42.57
2023-05-14T10:34:49.446Z,41.20
2023-05-14T10:36:05.261Z,41.77
2023-05-14T10:37:11.989Z,45.84
2023-05-14T10:38:15.213Z,47.16
2023-05-14T10:39:16.634Z,42.97
2023-05-14T10:40:19.139Z,40.13
2023-05-14T10:41:21.521Z,41.59
2023-05-14T10:42:43.680Z,45.39
2023-05-14T10:43:45.331Z,39.79
2023-05-14T10:44:59.618Z,40.59
2023-05-14T10:46:01.185Z,45.57
2023-05-14T10:47:03.308Z,45.78
2023-05-14T10:48:04.996Z,45.71
2023-05-14T10:49:06.671Z,45.11
2023-05-14T10:50:10.874Z,39.74
2023-05-14T10:51:12.785Z,43.94
2023-05-14T10:52:18.421Z,45.08
2023-05-14T10:53:21.089Z,43.31
2023-05-14T10:54:23.350Z,41.33
2023-05-14T10:55:25.493Z,39.68
2023-05-14T10:56:26.897Z,40.04
2023-05-14T10:57:30.812Z,41.07
2023-05-14T10:58:35.900Z,40.69
2023-05-14T10:59:37.357Z,39.43
2023-05-14T11:00:39.229Z,39.76
2023-05-14T11:01:41.076Z,40.59
2023-05-14T11:02:44.561Z,38.92
2023-05-14T11:03:47.122Z,39.74
2023-05-14T11:05:13.943Z,39.25
2023-05-14T11:06:16.171Z,38.45
2023-05-14T11:07:23.693Z,42.32
2023-05-14T11:08:29.372Z,39.76
2023-05-14T11:09:31.152Z,38.71
2023-05-14T11:10:32.733Z,38.24
2023-05-14T11:11:35.584Z,38.92
2023-05-14T11:12:42.413Z,41.13
2023-05-14T11:13:44.958Z,38.90
2023-05-14T11:14:47.176Z,38.31
2023-05-14T11:15:49.346Z,39.48
2023-05-14T11:16:50.980Z,39.07
2023-05-14T11:17:53.690Z,38.81
2023-05-14T11:19:03.507Z,38.89
2023-05-14T11:20:06.553Z,39.25
2023-05-14T11:21:08.037Z,39.41
2023-05-14T11:22:09.447Z,39.72
2023-05-14T11:23:10.975Z,39.39
2023-05-14T11:24:12.443Z,38.80
2023-05-14T11:25:15.146Z,39.28
2023-05-14T11:26:17.928Z,38.47
2023-05-14T11:27:22.389Z,38.76
2023-05-14T11:28:26.252Z,40.09
2023-05-14T11:29:27.740Z,38.95
2023-05-14T11:30:31.334Z,38.07
2023-05-14T11:31:32.963Z,37.68
2023-05-14T11:32:35.112Z,37.01
2023-05-14T11:33:36.630Z,35.94
2023-05-14T11:34:38.140Z,35.62
2023-05-14T11:35:39.648Z,35.03
2023-05-14T11:36:42.209Z,33.39
2023-05-14T11:37:49.345Z,33.58
2023-05-14T11:38:52.175Z,33.73
2023-05-14T11:39:55.024Z,34.79
2023-05-14T11:40:58.481Z,33.80
2023-05-14T11:42:02.690Z,34.75
2023-05-14T11:43:04.235Z,34.60
2023-05-14T11:44:07.288Z,35.46
2023-05-14T11:45:14.404Z,35.99
2023-05-14T11:46:18.061Z,35.49
2023-05-14T11:47:21.245Z,38.47
2023-05-14T11:48:23.993Z,35.52
2023-05-14T11:49:28.847Z,34.51
2023-05-14T11:50:30.300Z,34.92
2023-05-14T11:51:31.953Z,35.66
2023-05-14T11:52:41.563Z,35.71
2023-05-14T11:53:43.054Z,36.81
2023-05-14T11:54:45.254Z,35.40
2023-05-14T11:55:47.472Z,35.93
2023-05-14T11:56:51.834Z,36.81
2023-05-14T11:57:54.066Z,36.62
2023-05-14T11:58:58.180Z,36.88
2023-05-14T11:59:59.655Z,38.02
2023-05-14T12:01:01.125Z,37.44
2023-05-14T12:02:04.937Z,38.06
2023-05-14T12:03:06.647Z,38.21
2023-05-14T12:04:08.302Z,39.18
2023-05-14T12:05:13.376Z,38.99
2023-05-14T12:06:14.954Z,39.23
2023-05-14T12:07:16.546Z,39.15
2023-05-14T12:08:22.279Z,39.30
2023-05-14T12:09:23.692Z,39.63
2023-05-14T12:10:25.416Z,39.39
2023-05-14T12:11:31.987Z,40.85
2023-05-14T12:12:39.333Z,41.16
2023-05-14T12:13:40.769Z,41.64
2023-05-14T12:14:43.692Z,39.45
2023-05-14T12:15:47.040Z,39.70
2023-05-14T12:16:49.590Z,38.86
2023-05-14T12:17:53.823Z,38.21
2023-05-14T12:19:00.392Z,38.04
2023-05-14T12:20:01.854Z,39.72
2023-05-14T12:21:04.432Z,38.63
2023-05-14T12:22:05.937Z,39.05
2023-05-14T12:23:11.049Z,38.74
2023-05-14T12:24:14.181Z,40.03
2023-05-14T12:25:15.878Z,39.67
2023-05-14T12:26:17.347Z,38.88
2023-05-14T12:27:22.459Z,38.52
2023-05-14T12:28:23.913Z,38.27
2023-05-14T12:29:26.299Z,37.70
2023-05-14T12:30:27.802Z,38.16
2023-05-14T12:31:34.320Z,36.76
2023-05-14T12:32:36.144Z,36.67
2023-05-14T12:33:37.621Z,34.99
2023-05-14T12:34:39.126Z,37.13
2023-05-14T12:35:41.093Z,36.16
2023-05-14T12:36:43.199Z,34.79
2023-05-14T12:37:44.662Z,34.62
2023-05-14T12:38:46.132Z,33.34
2023-05-14T12:39:47.549Z,34.59
2023-05-14T12:40:49.019Z,32.34
2023-05-14T12:41:50.454Z,34.08
2023-05-14T12:42:51.858Z,33.55
2023-05-14T12:43:53.363Z,35.47
2023-05-14T12:44:54.811Z,35.33
2023-05-14T12:45:56.211Z,33.20
2023-05-14T12:46:57.836Z,33.60
2023-05-14T12:47:59.914Z,34.24
2023-05-14T12:49:01.457Z,31.81
2023-05-14T12:50:03.026Z,33.50
2023-05-14T12:51:04.615Z,33.37
2023-05-14T12:52:25.653Z,32.22
2023-05-14T12:53:28.404Z,33.43
2023-05-14T12:54:31.635Z,36.29
2023-05-14T12:55:34.244Z,33.15
2023-05-14T12:56:37.666Z,33.22
2023-05-14T12:57:39.703Z,31.71
2023-05-14T12:58:41.489Z,34.90
2023-05-14T12:59:43.325Z,37.00
2023-05-14T13:00:44.869Z,38.75
2023-05-14T13:01:46.323Z,38.30
2023-05-14T13:02:47.756Z,34.99
2023-05-14T13:03:49.474Z,34.29
2023-05-14T13:04:50.894Z,35.61
2023-05-14T13:05:53.645Z,35.66
2023-05-14T13:06:55.163Z,32.95
2023-05-14T13:07:59.540Z,39.26
2023-05-14T13:09:03.720Z,35.14
2023-05-14T13:10:05.839Z,34.55
2023-05-14T13:11:08.259Z,35.99
2023-05-14T13:12:09.769Z,35.06
2023-05-14T13:13:11.718Z,35.07
2023-05-14T13:14:13.166Z,33.91
2023-05-14T13:15:14.612Z,37.52
2023-05-14T13:16:16.883Z,37.74
2023-05-14T13:17:18.555Z,40.86
2023-05-14T13:18:20.025Z,37.83
2023-05-14T13:19:21.519Z,39.17
2023-05-14T13:20:23.588Z,36.43
2023-05-14T13:21:25.051Z,35.48
2023-05-14T13:22:26.475Z,35.99
2023-05-14T13:23:27.873Z,35.86
2023-05-14T13:24:29.381Z,34.87
2023-05-14T13:25:30.818Z,31.88
2023-05-14T13:26:32.253Z,31.01